This is the latest recevied weather packets stored in our database for station/object WBKK. If no packets are shown the sender has not sent any weather packets the latest 10 day(s).
| Time | Temp. | Humidity | Pressure | Rain* | Wind** | Luminosity | Snow |
|---|---|---|---|---|---|---|---|
| 1788157014 | 31.67° C | 74% | 1008 hPa | - | - | - | - |
| 1788155119 | 32.78° C | 70% | 1009 hPa | - | - | - | - |
| 1788153386 | 32.78° C | 66% | 1009 hPa | - | - | - | - |
| 1788151518 | 32.78° C | 66% | 1010 hPa | - | - | - | - |
| 1788150907 | 32.78° C | 66% | 1010 hPa | - | - | - | - |
| 1788149785 | 31.67° C | 66% | 1010 hPa | - | - | - | - |
| 1788147929 | 31.67° C | 70% | 1010 hPa | - | - | - | - |
| 1788146185 | 31.67° C | 70% | 1010 hPa | - | - | - | - |
| 1788144318 | 30.56° C | 70% | 1011 hPa | - | - | - | - |
| 1788142586 | 30.56° C | 70% | 1011 hPa | - | - | - | - |
| 1788140718 | 30.56° C | 70% | 1011 hPa | - | - | - | - |
| 1788139042 | 30° C | 70% | 1011 hPa | - | - | - | - |
| 1788137118 | 27.78° C | 69% | 1011 hPa | - | - | - | - |
| 1788135386 | 25.56° C | 78% | 1011 hPa | - | - | - | - |
| 1788133526 | 25.56° C | 78% | 1011 hPa | - | - | - | - |
| 1788131785 | 25° C | 83% | 1010 hPa | - | - | - | - |
| 1788129919 | 25° C | 78% | 1009 hPa | - | - | - | - |
| 1788128186 | 25° C | 78% | 1009 hPa | - | - | - | - |
| 1788126318 | 23.89° C | 88% | 1009 hPa | - | - | - | - |
| 1788124613 | 23.89° C | 88% | 1009 hPa | - | - | - | - |
| 1788122718 | 25° C | 83% | 1009 hPa | - | - | - | - |
| 1788121015 | 25° C | 78% | 1009 hPa | - | - | - | - |
| 1788119128 | 25.56° C | 73% | 1009 hPa | - | - | - | - |
| 1788117385 | 25.56° C | 73% | 1010 hPa | - | - | - | - |
| 1788115519 | 25° C | 83% | 1011 hPa | - | - | - | - |
* Rain since midnight (hover to see other rain measurements)
** Current wind speed in m/s (hover to see current wind gust speed)